createdAt,value
2018-07-14T00:00:38.803Z,78.23
2018-07-14T00:03:07.815Z,79.15
2018-07-14T00:05:36.939Z,78.51
2018-07-14T00:08:06.088Z,78.34
2018-07-14T00:10:35.159Z,78.58
2018-07-14T00:13:04.222Z,79.27
2018-07-14T00:15:33.220Z,78.48
2018-07-14T00:18:02.205Z,79.05
2018-07-14T00:20:31.232Z,79.19
2018-07-14T00:23:00.324Z,78.79
2018-07-14T00:25:34.363Z,78.43
2018-07-14T00:28:03.406Z,78.58
2018-07-14T00:30:32.399Z,80.63
2018-07-14T00:33:01.427Z,80.45
2018-07-14T00:35:30.407Z,78.72
2018-07-14T00:37:59.381Z,78.73
2018-07-14T00:40:28.473Z,79.60
2018-07-14T00:42:57.480Z,82.23
2018-07-14T00:45:26.508Z,83.53
2018-07-14T00:47:55.536Z,82.45
2018-07-14T00:50:24.509Z,81.18
2018-07-14T00:52:53.504Z,79.47
2018-07-14T00:55:22.503Z,79.98
2018-07-14T00:57:51.735Z,79.73
2018-07-14T01:00:20.955Z,79.52
2018-07-14T01:02:50.059Z,79.60
2018-07-14T01:05:19.023Z,79.28
2018-07-14T01:07:48.046Z,79.25
2018-07-14T01:10:17.018Z,78.25
2018-07-14T01:12:45.990Z,78.23
2018-07-14T01:15:15.082Z,78.43
2018-07-14T01:17:44.066Z,79.34
2018-07-14T01:20:13.137Z,78.45
2018-07-14T01:22:42.104Z,78.26
2018-07-14T01:25:11.168Z,78.54
2018-07-14T01:27:40.225Z,78.59
2018-07-14T01:30:09.304Z,78.68
2018-07-14T01:32:38.534Z,78.11
2018-07-14T01:35:08.152Z,78.33
2018-07-14T01:37:37.191Z,78.29
2018-07-14T01:40:06.168Z,77.64
2018-07-14T01:42:35.161Z,78.59
2018-07-14T01:45:04.199Z,78.78
2018-07-14T01:47:33.167Z,78.11
2018-07-14T01:50:02.145Z,77.37
2018-07-14T01:52:31.164Z,78.29
2018-07-14T01:55:00.212Z,77.75
2018-07-14T01:57:29.172Z,78.73
2018-07-14T01:59:58.192Z,78.65
2018-07-14T02:02:27.171Z,78.47
2018-07-14T02:04:56.185Z,78.69
2018-07-14T02:07:25.237Z,78.47
2018-07-14T02:09:54.196Z,78.22
2018-07-14T02:12:23.385Z,78.11
2018-07-14T02:14:52.352Z,78.38
2018-07-14T02:17:21.328Z,78.73
2018-07-14T02:19:50.357Z,79.36
2018-07-14T02:22:19.319Z,78.80
2018-07-14T02:24:48.354Z,78.85
2018-07-14T02:27:17.421Z,78.54
2018-07-14T02:29:46.415Z,77.90
2018-07-14T02:32:15.433Z,78.00
2018-07-14T02:34:44.452Z,78.74
2018-07-14T02:37:13.443Z,78.62
2018-07-14T02:39:42.457Z,78.43
2018-07-14T02:42:11.557Z,78.83
2018-07-14T02:44:40.676Z,79.18
2018-07-14T02:47:09.701Z,78.62
2018-07-14T02:49:38.705Z,77.84
2018-07-14T02:52:07.748Z,78.18
2018-07-14T02:57:04.537Z,78.37
2018-07-14T02:59:33.630Z,78.50
2018-07-14T03:02:02.588Z,78.27
2018-07-14T03:04:31.692Z,77.18
2018-07-14T03:07:00.659Z,77.44
2018-07-14T03:09:29.644Z,77.58
2018-07-14T03:11:58.628Z,78.35
2018-07-14T03:14:27.684Z,77.84
2018-07-14T03:16:56.680Z,77.80
2018-07-14T03:19:25.756Z,78.20
2018-07-14T03:21:54.725Z,77.80
2018-07-14T03:24:23.745Z,77.21
2018-07-14T03:26:52.766Z,76.38
2018-07-14T03:29:21.794Z,76.41
2018-07-14T03:31:50.771Z,76.87
2018-07-14T03:34:19.824Z,76.22
2018-07-14T03:36:48.900Z,74.91
2018-07-14T03:39:18.083Z,74.26
2018-07-14T03:41:47.043Z,73.95
2018-07-14T03:44:16.057Z,73.29
2018-07-14T03:46:45.149Z,72.21
2018-07-14T03:49:14.156Z,70.75
2018-07-14T03:51:43.202Z,71.52
2018-07-14T03:54:12.220Z,71.97
2018-07-14T03:56:41.260Z,71.26
2018-07-14T03:59:10.288Z,72.26
2018-07-14T04:01:39.261Z,73.00
2018-07-14T04:04:08.292Z,72.72
2018-07-14T04:06:37.457Z,69.80
2018-07-14T04:09:07.309Z,71.90
2018-07-14T04:11:36.300Z,72.31
2018-07-14T04:14:05.432Z,72.73
2018-07-14T04:16:34.480Z,73.57
2018-07-14T04:19:03.440Z,72.99
2018-07-14T04:21:32.478Z,73.00
2018-07-14T04:24:01.448Z,70.18
2018-07-14T04:26:30.504Z,71.65
2018-07-14T04:28:59.460Z,68.47
2018-07-14T04:31:28.495Z,68.44
2018-07-14T04:33:57.536Z,69.61
2018-07-14T04:36:26.585Z,69.48
2018-07-14T04:38:55.556Z,69.80
2018-07-14T04:41:24.938Z,69.95
2018-07-14T04:43:54.217Z,68.44
2018-07-14T04:46:23.307Z,67.41
2018-07-14T04:48:52.336Z,66.17
2018-07-14T04:51:21.404Z,65.91
2018-07-14T04:53:50.521Z,64.45
2018-07-14T04:56:19.512Z,65.85
2018-07-14T04:58:48.572Z,64.84
2018-07-14T05:01:17.672Z,64.98
2018-07-14T05:03:46.635Z,64.18
2018-07-14T05:06:15.725Z,64.71
2018-07-14T05:08:44.784Z,65.66
2018-07-14T05:11:13.896Z,64.75
2018-07-14T05:13:42.872Z,64.40
2018-07-14T05:16:11.893Z,63.73
2018-07-14T05:18:40.932Z,64.07
2018-07-14T05:21:09.988Z,63.29
2018-07-14T05:23:39.137Z,62.71
2018-07-14T05:26:08.178Z,63.27
2018-07-14T05:28:37.247Z,62.63
2018-07-14T05:31:06.269Z,62.32
2018-07-14T05:33:35.240Z,62.94
2018-07-14T05:36:04.341Z,62.23
2018-07-14T05:38:33.304Z,62.54
2018-07-14T05:41:02.413Z,62.06
2018-07-14T05:43:31.381Z,61.46
2018-07-14T05:46:00.407Z,61.13
2018-07-14T05:48:29.425Z,60.25
2018-07-14T05:50:58.499Z,59.92
2018-07-14T05:53:27.537Z,60.03
2018-07-14T05:55:56.623Z,60.25
2018-07-14T05:58:25.773Z,59.65
2018-07-14T06:00:54.757Z,58.27
2018-07-14T06:03:23.716Z,57.32
2018-07-14T06:05:52.742Z,57.50
2018-07-14T06:08:21.852Z,58.22
2018-07-14T06:10:50.983Z,58.46
2018-07-14T06:13:19.960Z,60.05
2018-07-14T06:15:49.097Z,60.08
2018-07-14T06:18:18.096Z,60.27
2018-07-14T06:20:47.055Z,59.36
2018-07-14T06:23:16.041Z,58.66
2018-07-14T06:25:45.348Z,59.92
2018-07-14T06:28:14.385Z,61.18
2018-07-14T06:30:44.300Z,61.13
2018-07-14T06:33:13.340Z,60.02
2018-07-14T06:35:42.399Z,59.16
2018-07-14T06:38:11.499Z,58.16
2018-07-14T06:40:40.485Z,57.46
2018-07-14T06:43:09.461Z,57.35
2018-07-14T06:45:38.439Z,55.63
2018-07-14T06:48:07.484Z,55.21
2018-07-14T06:50:36.613Z,54.78
2018-07-14T06:53:05.640Z,55.17
2018-07-14T06:55:34.620Z,54.26
2018-07-14T06:58:03.681Z,52.81
2018-07-14T07:00:33.319Z,52.36
2018-07-14T07:03:02.343Z,52.22
2018-07-14T07:05:31.311Z,50.83
2018-07-14T07:08:00.295Z,51.78
2018-07-14T07:10:29.246Z,53.33
2018-07-14T07:12:58.280Z,51.08
2018-07-14T07:15:27.284Z,52.87
2018-07-14T07:17:56.328Z,52.82
2018-07-14T07:20:25.432Z,54.35
2018-07-14T07:22:54.548Z,53.65
2018-07-14T07:25:23.523Z,52.95
2018-07-14T07:27:52.488Z,54.29
2018-07-14T07:30:21.502Z,54.37
2018-07-14T07:32:50.475Z,55.76
2018-07-14T07:35:19.515Z,54.48
2018-07-14T07:37:48.507Z,54.79
2018-07-14T07:40:17.573Z,54.86
2018-07-14T07:42:46.560Z,53.02
2018-07-14T07:45:15.544Z,50.92
2018-07-14T07:47:44.590Z,51.11
2018-07-14T07:50:13.568Z,53.15
2018-07-14T07:52:42.550Z,53.12
2018-07-14T07:55:11.614Z,51.47
2018-07-14T07:57:40.635Z,49.84
2018-07-14T08:00:09.621Z,47.01
2018-07-14T08:02:38.592Z,49.37
2018-07-14T08:05:07.700Z,47.20
2018-07-14T08:07:36.723Z,48.28
2018-07-14T08:10:05.696Z,47.91
2018-07-14T08:12:34.847Z,48.52
2018-07-14T08:15:03.901Z,49.08
2018-07-14T08:17:32.904Z,50.11
2018-07-14T08:20:02.094Z,51.11
2018-07-14T08:22:31.076Z,51.30
2018-07-14T08:25:00.146Z,52.19
2018-07-14T08:27:29.157Z,50.27
2018-07-14T08:29:58.194Z,49.32
2018-07-14T08:32:27.381Z,48.43
2018-07-14T08:34:56.756Z,49.46
2018-07-14T08:37:25.795Z,48.70
2018-07-14T08:39:54.764Z,47.48
2018-07-14T08:42:25.584Z,47.89
2018-07-14T08:44:54.711Z,47.76
2018-07-14T08:47:30.648Z,48.52
2018-07-14T08:49:59.706Z,47.51
2018-07-14T08:52:28.761Z,47.86
2018-07-14T08:54:57.816Z,47.32
2018-07-14T08:57:26.780Z,47.49
2018-07-14T08:59:55.852Z,47.51
2018-07-14T09:02:24.811Z,47.26
2018-07-14T09:04:53.779Z,49.53
2018-07-14T09:07:22.993Z,49.35
2018-07-14T09:09:52.033Z,50.67
2018-07-14T09:12:21.121Z,51.32
2018-07-14T09:14:50.072Z,51.20
2018-07-14T09:17:19.051Z,48.68
2018-07-14T09:19:48.022Z,49.37
2018-07-14T09:22:17.007Z,45.40
2018-07-14T09:24:46.096Z,45.01
2018-07-14T09:27:15.080Z,44.94
2018-07-14T09:29:44.112Z,43.10
2018-07-14T09:32:13.244Z,44.47
2018-07-14T09:34:42.227Z,45.47
2018-07-14T09:37:11.185Z,43.61
2018-07-14T09:39:40.179Z,42.77
2018-07-14T09:42:09.166Z,41.89
2018-07-14T09:44:38.234Z,43.65
2018-07-14T09:47:07.281Z,43.12
2018-07-14T09:49:36.286Z,44.00
2018-07-14T09:52:05.369Z,45.62
2018-07-14T09:54:34.360Z,42.83
2018-07-14T09:57:03.692Z,43.12
2018-07-14T09:59:32.748Z,42.71
2018-07-14T10:02:02.037Z,39.59
2018-07-14T10:04:31.183Z,41.07
2018-07-14T10:07:00.319Z,40.57
2018-07-14T10:09:29.568Z,39.47
2018-07-14T10:11:58.662Z,41.81
2018-07-14T10:14:27.683Z,42.81
2018-07-14T10:16:56.656Z,41.86
2018-07-14T10:19:25.766Z,42.25
2018-07-14T10:21:54.801Z,41.01
2018-07-14T10:24:23.852Z,43.64
2018-07-14T10:26:52.998Z,42.96
2018-07-14T10:29:21.963Z,41.05
2018-07-14T10:31:51.003Z,42.39
2018-07-14T10:34:20.052Z,39.23
2018-07-14T10:36:49.422Z,40.10
2018-07-14T10:39:18.736Z,40.00
2018-07-14T10:41:48.372Z,41.74
2018-07-14T10:44:18.748Z,41.79
2018-07-14T10:46:47.782Z,43.26
2018-07-14T10:49:16.781Z,40.60
2018-07-14T10:51:45.829Z,38.34
2018-07-14T10:54:14.824Z,39.98
2018-07-14T10:56:43.872Z,41.27
2018-07-14T10:59:12.843Z,38.72
2018-07-14T11:01:41.970Z,40.00
2018-07-14T11:04:10.983Z,38.96
2018-07-14T11:06:40.116Z,38.77
2018-07-14T11:09:09.766Z,39.85
2018-07-14T11:11:38.824Z,37.38
2018-07-14T11:14:07.996Z,37.82
2018-07-14T11:16:36.975Z,37.52
2018-07-14T11:19:07.289Z,37.94
2018-07-14T11:21:36.348Z,38.99
2018-07-14T11:24:05.608Z,38.07
2018-07-14T11:26:34.624Z,39.52
2018-07-14T11:29:03.645Z,36.03
2018-07-14T11:31:32.757Z,37.67
2018-07-14T11:34:01.724Z,36.69
2018-07-14T11:36:30.763Z,38.16
2018-07-14T11:38:59.941Z,37.35
2018-07-14T11:41:29.096Z,40.01
2018-07-14T11:43:58.075Z,37.71
2018-07-14T11:46:27.216Z,39.44
2018-07-14T11:48:56.288Z,39.79
2018-07-14T11:51:25.290Z,37.07
2018-07-14T11:53:54.367Z,37.83
2018-07-14T11:56:26.933Z,39.06
2018-07-14T11:58:56.153Z,36.40
2018-07-14T12:01:25.679Z,38.83
2018-07-14T12:03:55.097Z,38.17
2018-07-14T12:06:24.192Z,36.19
2018-07-14T12:08:53.437Z,39.01
2018-07-14T12:11:22.412Z,37.20
2018-07-14T12:13:51.488Z,36.44
2018-07-14T12:16:20.726Z,35.44
2018-07-14T12:18:49.989Z,36.26
2018-07-14T12:21:19.340Z,38.78
2018-07-14T12:23:48.327Z,37.34
2018-07-14T12:26:17.360Z,37.93
2018-07-14T12:28:46.431Z,37.15
2018-07-14T12:31:15.453Z,38.28
2018-07-14T12:33:44.476Z,39.16
2018-07-14T12:36:13.505Z,39.83
2018-07-14T12:38:42.767Z,39.75
2018-07-14T12:41:11.804Z,39.96
2018-07-14T12:43:40.796Z,37.91
2018-07-14T12:46:09.791Z,37.45
2018-07-14T12:48:38.891Z,37.87
2018-07-14T12:51:07.952Z,38.05
2018-07-14T12:53:36.928Z,36.65
2018-07-14T12:56:06.212Z,36.69
2018-07-14T12:58:35.261Z,38.42
2018-07-14T13:01:04.341Z,38.33
2018-07-14T13:03:33.300Z,38.55
2018-07-14T13:06:02.381Z,36.25
2018-07-14T13:08:31.356Z,35.95
2018-07-14T13:11:00.472Z,37.39
2018-07-14T13:13:29.532Z,37.34
2018-07-14T13:15:58.495Z,37.97
2018-07-14T13:18:27.541Z,38.88
2018-07-14T13:20:56.609Z,38.02
2018-07-14T13:23:25.640Z,40.17
2018-07-14T13:25:54.741Z,40.44
2018-07-14T13:28:24.005Z,38.03
2018-07-14T13:30:52.999Z,36.84
2018-07-14T13:33:22.296Z,38.45
2018-07-14T13:35:51.249Z,34.98
2018-07-14T13:38:20.368Z,35.75
2018-07-14T13:40:49.712Z,36.15
2018-07-14T13:43:18.726Z,36.73
2018-07-14T13:45:47.747Z,37.07
2018-07-14T13:48:16.737Z,37.36
2018-07-14T13:50:45.961Z,38.52
2018-07-14T13:53:14.915Z,38.80
2018-07-14T13:55:44.001Z,38.80
2018-07-14T13:58:13.021Z,38.74
2018-07-14T14:00:42.000Z,38.15
2018-07-14T14:03:10.986Z,37.94
2018-07-14T14:05:40.036Z,38.57
2018-07-14T14:08:08.604Z,39.74
2018-07-14T14:10:37.672Z,38.30
2018-07-14T14:13:06.876Z,37.47
2018-07-14T14:15:35.856Z,38.43
2018-07-14T14:18:04.868Z,39.17
2018-07-14T14:20:33.857Z,37.91
2018-07-14T14:23:02.823Z,39.39
2018-07-14T14:25:32.025Z,39.77
2018-07-14T14:28:01.011Z,39.35
2018-07-14T14:30:30.321Z,39.75
2018-07-14T14:32:59.647Z,41.14
2018-07-14T14:35:28.884Z,40.27
2018-07-14T14:37:57.984Z,40.10
2018-07-14T14:40:27.103Z,39.35
2018-07-14T14:42:56.228Z,39.30
2018-07-14T14:45:25.300Z,39.48
2018-07-14T14:47:54.285Z,39.77
2018-07-14T14:50:23.282Z,40.91
2018-07-14T14:52:52.307Z,40.19
2018-07-14T14:55:21.686Z,40.80
2018-07-14T14:57:50.945Z,40.03
2018-07-14T15:00:20.198Z,41.20
2018-07-14T15:02:49.531Z,39.13
2018-07-14T15:05:18.604Z,39.99
2018-07-14T15:07:47.570Z,40.24
2018-07-14T15:10:16.567Z,40.36
2018-07-14T15:12:45.541Z,39.83
2018-07-14T15:15:14.721Z,39.90
2018-07-14T15:17:43.737Z,40.20
2018-07-14T15:20:12.769Z,39.40
2018-07-14T15:22:41.827Z,40.82
2018-07-14T15:25:10.794Z,42.12
2018-07-14T15:27:39.816Z,40.63
2018-07-14T15:30:09.461Z,41.16
2018-07-14T15:32:38.589Z,39.74
2018-07-14T15:35:07.852Z,40.45
2018-07-14T15:37:36.916Z,39.79
2018-07-14T15:40:06.027Z,40.54
2018-07-14T15:42:35.056Z,40.40
2018-07-14T15:45:04.161Z,41.54
2018-07-14T15:47:33.168Z,40.59
2018-07-14T15:50:02.204Z,42.91
2018-07-14T15:52:31.285Z,41.80
2018-07-14T15:55:00.283Z,43.46
2018-07-14T15:57:29.321Z,42.85
2018-07-14T15:59:58.323Z,42.58
2018-07-14T16:02:27.293Z,43.48
2018-07-14T16:04:56.391Z,41.89
2018-07-14T16:07:25.357Z,42.78
2018-07-14T16:09:54.359Z,42.70
2018-07-14T16:12:23.389Z,43.61
2018-07-14T16:14:52.352Z,43.86
2018-07-14T16:17:21.381Z,43.51
2018-07-14T16:19:50.421Z,43.47
2018-07-14T16:22:19.416Z,44.98
2018-07-14T16:24:48.517Z,45.13
2018-07-14T16:27:17.580Z,43.80
2018-07-14T16:29:46.605Z,44.58
2018-07-14T16:32:15.716Z,44.97
2018-07-14T16:34:44.716Z,45.25
2018-07-14T16:37:13.837Z,45.76
2018-07-14T16:39:42.915Z,45.21
2018-07-14T16:42:11.960Z,46.38
2018-07-14T16:44:40.980Z,47.69
2018-07-14T16:47:09.961Z,48.66
2018-07-14T16:49:38.948Z,48.85
2018-07-14T16:52:08.018Z,48.86
2018-07-14T16:54:37.067Z,48.11
2018-07-14T16:57:06.175Z,49.13
2018-07-14T16:59:35.188Z,49.63
2018-07-14T17:02:04.243Z,49.48
2018-07-14T17:04:33.382Z,48.54
2018-07-14T17:07:02.288Z,49.05
2018-07-14T17:09:31.260Z,49.43
2018-07-14T17:12:00.297Z,49.60
2018-07-14T17:14:29.283Z,50.00
2018-07-14T17:16:58.269Z,48.96
2018-07-14T17:19:27.260Z,48.49
2018-07-14T17:21:56.301Z,49.38
2018-07-14T17:24:25.358Z,49.67
2018-07-14T17:26:54.400Z,50.28
2018-07-14T17:29:23.513Z,50.15
2018-07-14T17:31:52.468Z,50.32
2018-07-14T17:34:21.429Z,52.18
2018-07-14T17:36:50.473Z,51.66
2018-07-14T17:39:19.428Z,52.47
2018-07-14T17:41:48.421Z,51.94
2018-07-14T17:44:17.436Z,53.48
2018-07-14T17:46:46.535Z,55.04
2018-07-14T17:49:15.567Z,55.94
2018-07-14T17:51:44.612Z,55.94
2018-07-14T17:54:13.631Z,54.87
2018-07-14T17:56:42.611Z,54.20
2018-07-14T17:59:11.641Z,54.05
2018-07-14T18:01:40.609Z,55.24
2018-07-14T18:04:09.587Z,55.29
2018-07-14T18:06:38.550Z,55.06
2018-07-14T18:09:09.132Z,55.69
2018-07-14T18:11:38.144Z,54.68
2018-07-14T18:14:07.188Z,54.47
2018-07-14T18:16:36.272Z,54.41
2018-07-14T18:19:05.267Z,56.23
2018-07-14T18:21:34.329Z,54.53
2018-07-14T18:24:03.328Z,54.19
2018-07-14T18:26:32.319Z,55.32
2018-07-14T18:29:01.377Z,55.11
2018-07-14T18:31:30.417Z,55.92
2018-07-14T18:33:59.408Z,55.51
2018-07-14T18:36:28.363Z,55.95
2018-07-14T18:38:57.391Z,55.74
2018-07-14T18:41:26.392Z,56.37
2018-07-14T18:43:55.501Z,56.62
2018-07-14T18:46:24.453Z,56.01
2018-07-14T18:48:53.432Z,57.39
2018-07-14T18:51:22.396Z,56.56
2018-07-14T18:53:51.436Z,56.55
2018-07-14T18:56:20.423Z,56.05
2018-07-14T18:58:49.524Z,55.53
2018-07-14T19:01:18.507Z,55.24
2018-07-14T19:03:47.533Z,56.12
2018-07-14T19:06:16.525Z,55.39
2018-07-14T19:08:45.489Z,56.00
2018-07-14T19:11:14.479Z,55.59
2018-07-14T19:13:43.519Z,55.84
2018-07-14T19:16:12.575Z,55.82
2018-07-14T19:18:41.668Z,55.47
2018-07-14T19:21:10.834Z,55.84
2018-07-14T19:23:39.853Z,55.87
2018-07-14T19:26:09.015Z,56.48
2018-07-14T19:28:37.840Z,56.32
2018-07-14T19:31:06.826Z,56.78
2018-07-14T19:33:35.940Z,56.55
2018-07-14T19:36:05.020Z,56.97
2018-07-14T19:38:34.079Z,57.05
2018-07-14T19:41:03.128Z,57.41
2018-07-14T19:43:32.180Z,57.16
2018-07-14T19:46:01.168Z,56.81
2018-07-14T19:48:30.244Z,57.33
2018-07-14T19:50:59.259Z,57.94
2018-07-14T19:53:28.279Z,57.22
2018-07-14T19:55:57.343Z,57.46
2018-07-14T19:58:26.318Z,57.04
2018-07-14T20:00:55.360Z,57.77
2018-07-14T20:03:24.372Z,58.43
2018-07-14T20:05:53.331Z,58.70
2018-07-14T20:08:22.359Z,58.38
2018-07-14T20:10:51.372Z,58.21
2018-07-14T20:13:20.349Z,58.04
2018-07-14T20:15:49.329Z,58.03
2018-07-14T20:18:18.296Z,58.41
2018-07-14T20:20:47.308Z,58.42
2018-07-14T20:23:16.348Z,58.32
2018-07-14T20:25:45.304Z,58.66
2018-07-14T20:28:14.266Z,58.90
2018-07-14T20:30:43.237Z,58.52
2018-07-14T20:33:12.318Z,58.61
2018-07-14T20:35:41.435Z,59.08
2018-07-14T20:38:10.548Z,58.59
2018-07-14T20:40:39.557Z,58.94
2018-07-14T20:43:08.531Z,59.51
2018-07-14T20:45:37.623Z,59.53
2018-07-14T20:48:06.588Z,59.04
2018-07-14T20:50:35.551Z,59.91
2018-07-14T20:53:04.590Z,59.38
2018-07-14T20:55:33.645Z,60.01
2018-07-14T20:58:02.636Z,60.27
2018-07-14T21:00:31.602Z,60.26
2018-07-14T21:03:00.637Z,60.99
2018-07-14T21:05:29.592Z,60.89
2018-07-14T21:07:58.552Z,60.69
2018-07-14T21:10:27.593Z,62.63
2018-07-14T21:12:56.611Z,61.80
2018-07-14T21:15:25.591Z,61.62
2018-07-14T21:17:54.559Z,62.32
2018-07-14T21:20:23.587Z,62.09
2018-07-14T21:22:52.617Z,63.13
2018-07-14T21:25:21.647Z,62.82
2018-07-14T21:27:50.595Z,62.44
2018-07-14T21:30:19.607Z,62.18
2018-07-14T21:32:48.660Z,62.96
2018-07-14T21:35:17.700Z,62.34
2018-07-14T21:37:46.779Z,62.61
2018-07-14T21:40:15.938Z,63.52
2018-07-14T21:42:45.000Z,63.21
2018-07-14T21:45:13.985Z,63.56
2018-07-14T21:47:43.028Z,63.48
2018-07-14T21:50:12.281Z,63.96
2018-07-14T21:52:41.283Z,64.37
2018-07-14T21:55:10.271Z,64.03
2018-07-14T21:57:39.281Z,64.53
2018-07-14T22:00:08.760Z,64.96
2018-07-14T22:02:37.771Z,64.71
2018-07-14T22:05:06.872Z,65.29
2018-07-14T22:07:35.893Z,64.89
2018-07-14T22:10:05.024Z,65.95
2018-07-14T22:12:34.005Z,66.05
2018-07-14T22:15:03.163Z,66.30
2018-07-14T22:17:32.040Z,66.30
2018-07-14T22:20:01.016Z,66.76
2018-07-14T22:22:30.017Z,67.47
2018-07-14T22:24:58.990Z,67.42
2018-07-14T22:27:27.977Z,67.48
2018-07-14T22:29:56.927Z,68.72
2018-07-14T22:32:25.895Z,68.12
2018-07-14T22:34:54.948Z,69.34
2018-07-14T22:37:23.967Z,69.52
2018-07-14T22:39:52.956Z,69.73
2018-07-14T22:42:22.017Z,69.01
2018-07-14T22:44:51.008Z,69.76
2018-07-14T22:47:19.964Z,69.33
2018-07-14T22:49:49.016Z,69.24
2018-07-14T22:52:18.044Z,69.49
2018-07-14T22:54:47.249Z,69.04
2018-07-14T22:57:16.312Z,69.14
2018-07-14T22:59:45.385Z,69.16
2018-07-14T23:02:14.335Z,69.58
2018-07-14T23:04:43.288Z,69.52
2018-07-14T23:07:12.342Z,69.83
2018-07-14T23:09:41.302Z,69.46
2018-07-14T23:12:10.340Z,69.44
2018-07-14T23:14:39.403Z,70.03
2018-07-14T23:17:08.472Z,70.98
2018-07-14T23:19:37.429Z,71.14
2018-07-14T23:22:06.609Z,71.51
2018-07-14T23:24:35.755Z,71.70
2018-07-14T23:27:04.852Z,72.48
2018-07-14T23:29:33.800Z,72.98
2018-07-14T23:32:02.801Z,73.22
2018-07-14T23:34:31.809Z,73.22
2018-07-14T23:37:00.884Z,73.44
2018-07-14T23:39:29.929Z,73.78
2018-07-14T23:41:59.019Z,73.74
2018-07-14T23:44:28.054Z,74.14
2018-07-14T23:46:57.000Z,73.96
2018-07-14T23:49:26.103Z,74.01
2018-07-14T23:51:55.108Z,74.54
2018-07-14T23:54:24.126Z,74.76
2018-07-14T23:56:53.217Z,74.85
2018-07-14T23:59:22.180Z,74.91
